createdAt,value
2019-06-07T00:01:25.539Z,13.5
2019-06-07T00:11:26.315Z,12.5
2019-06-07T00:22:45.879Z,13.4
2019-06-07T00:31:27.408Z,12.5
2019-06-07T00:41:25.923Z,13.6
2019-06-07T00:51:25.463Z,13.3
2019-06-07T01:01:27.139Z,15.1
2019-06-07T01:11:26.914Z,14.1
2019-06-07T01:21:30.640Z,18.5
2019-06-07T01:31:31.973Z,17.4
2019-06-07T01:41:30.627Z,17.9
2019-06-07T01:51:30.925Z,18.7
2019-06-07T02:01:35.703Z,14.2
2019-06-07T02:11:31.189Z,16.7
2019-06-07T02:21:31.453Z,14.7
2019-06-07T02:31:38.560Z,16.0
2019-06-07T02:41:38.740Z,19.3
2019-06-07T02:51:40.696Z,18.9
2019-06-07T03:01:38.074Z,18.8
2019-06-07T03:11:26.415Z,16.3
2019-06-07T03:21:31.304Z,17.5
2019-06-07T03:31:36.655Z,15.2
2019-06-07T03:41:28.305Z,15.7
2019-06-07T03:51:28.752Z,14.8
2019-06-07T04:01:25.630Z,15.1
2019-06-07T04:11:26.030Z,16.0
2019-06-07T04:21:29.634Z,20.4
2019-06-07T04:31:26.445Z,27.8
2019-06-07T04:41:26.273Z,32.8
2019-06-07T04:51:26.153Z,30.6
2019-06-07T05:01:30.736Z,27.8
2019-06-07T05:11:26.287Z,29.9
2019-06-07T05:22:03.347Z,22.1
2019-06-07T05:31:26.572Z,24.4
2019-06-07T05:41:26.107Z,17.9
2019-06-07T05:51:26.580Z,18.5
2019-06-07T06:01:55.882Z,19.0
2019-06-07T06:11:58.979Z,16.2
2019-06-07T06:21:26.968Z,27.6
2019-06-07T06:31:26.044Z,13.5
2019-06-07T06:41:25.751Z,13.8
2019-06-07T06:51:25.519Z,10.8
2019-06-07T07:01:26.623Z,9.0
2019-06-07T07:11:28.660Z,9.5
2019-06-07T07:21:26.713Z,16.4
2019-06-07T07:31:25.162Z,11.7
2019-06-07T07:41:26.015Z,13.7
2019-06-07T07:51:26.757Z,15.3
2019-06-07T08:01:25.496Z,15.7
2019-06-07T08:11:31.659Z,14.4
2019-06-07T08:21:27.754Z,13.1
2019-06-07T08:31:25.962Z,16.9
2019-06-07T08:41:27.153Z,15.7
2019-06-07T08:51:26.359Z,19.6
2019-06-07T09:01:26.182Z,13.1
2019-06-07T09:11:26.204Z,13.2
2019-06-07T09:21:25.977Z,19.1
2019-06-07T09:31:25.600Z,13.8
2019-06-07T09:41:50.027Z,17.0
2019-06-07T09:51:26.598Z,17.0
2019-06-07T10:01:26.252Z,13.0
2019-06-07T10:11:26.183Z,11.8
2019-06-07T10:21:26.385Z,10.8
2019-06-07T10:31:26.413Z,11.3
2019-06-07T10:41:26.576Z,12.1
2019-06-07T10:51:26.268Z,11.9
2019-06-07T11:01:26.222Z,10.3
2019-06-07T11:11:25.840Z,11.6
2019-06-07T11:21:26.887Z,8.8
2019-06-07T11:31:25.701Z,10.3
2019-06-07T11:41:26.825Z,10.7
2019-06-07T11:51:26.946Z,11.7
2019-06-07T12:01:29.329Z,10.3
2019-06-07T12:11:26.118Z,10.7
2019-06-07T12:21:26.303Z,14.4
2019-06-07T12:31:26.567Z,21.5
2019-06-07T12:41:28.543Z,10.1
2019-06-07T12:51:25.871Z,10.3
2019-06-07T13:01:26.078Z,9.5
2019-06-07T13:11:31.957Z,7.3
2019-06-07T13:21:25.722Z,8.6
2019-06-07T13:31:27.213Z,10.7
2019-06-07T13:41:43.111Z,11.6
2019-06-07T13:51:33.078Z,8.5
2019-06-07T14:01:28.991Z,8.5
2019-06-07T14:11:27.522Z,9.8
2019-06-07T14:21:30.756Z,7.3
2019-06-07T14:31:28.026Z,7.5
2019-06-07T14:41:29.193Z,9.3
2019-06-07T14:51:28.259Z,8.4
2019-06-07T15:01:28.410Z,9.4
2019-06-07T15:11:26.832Z,8.7
2019-06-07T15:21:28.651Z,13.8
2019-06-07T15:31:25.969Z,13.7
2019-06-07T15:41:32.978Z,14.9
2019-06-07T15:51:26.493Z,13.8
2019-06-07T16:01:26.445Z,11.4
2019-06-07T16:11:34.561Z,12.3
2019-06-07T16:21:25.961Z,11.5
2019-06-07T16:31:25.771Z,12.9
2019-06-07T16:41:26.773Z,14.6
2019-06-07T16:51:25.424Z,15.2
2019-06-07T17:01:26.950Z,17.5
2019-06-07T17:11:25.683Z,20.7
2019-06-07T17:21:25.706Z,15.9
2019-06-07T17:31:25.823Z,13.2
2019-06-07T17:41:27.050Z,15.1
2019-06-07T17:51:25.560Z,14.2
2019-06-07T18:01:47.673Z,14.5
2019-06-07T18:11:27.154Z,16.2
2019-06-07T18:21:25.932Z,18.8
2019-06-07T18:31:26.083Z,18.2
2019-06-07T18:41:25.845Z,18.5
2019-06-07T18:51:26.329Z,18.4
2019-06-07T19:01:29.847Z,21.5
2019-06-07T19:11:32.689Z,20.2
2019-06-07T19:21:27.010Z,17.8
2019-06-07T19:31:32.815Z,20.3
2019-06-07T19:41:25.692Z,27.0
2019-06-07T19:51:26.415Z,23.3
2019-06-07T20:01:26.962Z,24.1
2019-06-07T20:11:30.992Z,24.6
2019-06-07T20:21:28.594Z,23.2
2019-06-07T20:31:26.748Z,22.8
2019-06-07T20:41:28.622Z,22.8
2019-06-07T20:51:26.696Z,29.9
2019-06-07T21:01:25.496Z,29.0
2019-06-07T21:11:30.285Z,26.8
2019-06-07T21:21:28.663Z,30.0
2019-06-07T21:31:25.297Z,26.2
2019-06-07T21:41:28.700Z,29.4
2019-06-07T21:51:26.500Z,25.5
2019-06-07T22:01:26.031Z,26.8
2019-06-07T22:11:26.526Z,28.6
2019-06-07T22:21:25.481Z,32.1
2019-06-07T22:31:26.061Z,30.1
2019-06-07T22:41:26.312Z,28.0
2019-06-07T22:51:27.058Z,29.0
2019-06-07T23:01:25.547Z,35.4
2019-06-07T23:11:27.246Z,28.6
2019-06-07T23:21:26.365Z,28.8
2019-06-07T23:31:25.893Z,32.2
2019-06-07T23:41:25.652Z,34.2
2019-06-07T23:51:26.261Z,28.2
